sensor_id;sensor_type;location;lat;lon;timestamp;temperature;humidity
20091;DHT22;10205;49.678;6.560;2023-05-10T00:01:07;19.70;64.60
20091;DHT22;10205;49.678;6.560;2023-05-10T00:03:35;19.70;64.60
20091;DHT22;10205;49.678;6.560;2023-05-10T00:06:07;19.60;64.60
20091;DHT22;10205;49.678;6.560;2023-05-10T00:08:34;19.60;64.70
20091;DHT22;10205;49.678;6.560;2023-05-10T00:11:01;19.60;64.60
20091;DHT22;10205;49.678;6.560;2023-05-10T00:13:29;19.60;64.60
20091;DHT22;10205;49.678;6.560;2023-05-10T00:15:56;19.60;64.60
20091;DHT22;10205;49.678;6.560;2023-05-10T00:18:23;19.50;64.60
20091;DHT22;10205;49.678;6.560;2023-05-10T00:20:50;19.50;64.70
20091;DHT22;10205;49.678;6.560;2023-05-10T00:23:18;19.50;64.80
20091;DHT22;10205;49.678;6.560;2023-05-10T00:25:45;19.50;64.90
20091;DHT22;10205;49.678;6.560;2023-05-10T00:28:12;19.50;64.80
20091;DHT22;10205;49.678;6.560;2023-05-10T00:30:39;19.50;64.80
20091;DHT22;10205;49.678;6.560;2023-05-10T00:33:06;19.40;64.80
20091;DHT22;10205;49.678;6.560;2023-05-10T00:35:33;19.40;64.80
20091;DHT22;10205;49.678;6.560;2023-05-10T00:38:00;19.40;64.80
20091;DHT22;10205;49.678;6.560;2023-05-10T00:40:29;19.40;64.80
20091;DHT22;10205;49.678;6.560;2023-05-10T00:42:57;19.40;64.80
20091;DHT22;10205;49.678;6.560;2023-05-10T00:45:24;19.30;64.50
20091;DHT22;10205;49.678;6.560;2023-05-10T00:47:52;19.30;64.50
20091;DHT22;10205;49.678;6.560;2023-05-10T00:50:21;19.30;64.50
20091;DHT22;10205;49.678;6.560;2023-05-10T00:52:49;19.30;64.60
20091;DHT22;10205;49.678;6.560;2023-05-10T00:55:17;19.30;64.50
20091;DHT22;10205;49.678;6.560;2023-05-10T00:57:49;19.20;64.40
20091;DHT22;10205;49.678;6.560;2023-05-10T01:00:18;19.20;64.60
20091;DHT22;10205;49.678;6.560;2023-05-10T01:02:46;19.20;64.60
20091;DHT22;10205;49.678;6.560;2023-05-10T01:05:15;19.20;64.60
20091;DHT22;10205;49.678;6.560;2023-05-10T01:07:42;19.20;65.40
20091;DHT22;10205;49.678;6.560;2023-05-10T01:10:09;19.10;64.60
20091;DHT22;10205;49.678;6.560;2023-05-10T01:12:39;19.10;64.70
20091;DHT22;10205;49.678;6.560;2023-05-10T01:15:11;19.10;64.70
20091;DHT22;10205;49.678;6.560;2023-05-10T01:17:40;19.10;64.80
20091;DHT22;10205;49.678;6.560;2023-05-10T01:20:11;19.00;64.70
20091;DHT22;10205;49.678;6.560;2023-05-10T01:23:06;19.00;65.50
20091;DHT22;10205;49.678;6.560;2023-05-10T01:29:13;19.00;65.60
20091;DHT22;10205;49.678;6.560;2023-05-10T01:32:25;19.00;64.90
20091;DHT22;10205;49.678;6.560;2023-05-10T01:35:05;18.90;64.60
20091;DHT22;10205;49.678;6.560;2023-05-10T01:37:40;18.90;64.60
20091;DHT22;10205;49.678;6.560;2023-05-10T01:40:17;18.90;64.70
20091;DHT22;10205;49.678;6.560;2023-05-10T01:42:53;18.80;64.80
20091;DHT22;10205;49.678;6.560;2023-05-10T01:45:30;18.80;64.80
20091;DHT22;10205;49.678;6.560;2023-05-10T01:48:09;18.80;64.90
20091;DHT22;10205;49.678;6.560;2023-05-10T01:50:40;18.70;64.80
20091;DHT22;10205;49.678;6.560;2023-05-10T01:53:11;18.70;64.90
20091;DHT22;10205;49.678;6.560;2023-05-10T01:55:44;18.70;65.00
20091;DHT22;10205;49.678;6.560;2023-05-10T01:58:17;18.60;65.10
20091;DHT22;10205;49.678;6.560;2023-05-10T02:00:48;18.60;65.10
20091;DHT22;10205;49.678;6.560;2023-05-10T02:03:21;18.60;65.30
20091;DHT22;10205;49.678;6.560;2023-05-10T02:05:52;18.60;65.40
20091;DHT22;10205;49.678;6.560;2023-05-10T02:08:22;18.50;65.20
20091;DHT22;10205;49.678;6.560;2023-05-10T02:10:51;18.50;65.20
20091;DHT22;10205;49.678;6.560;2023-05-10T02:13:23;18.50;65.30
20091;DHT22;10205;49.678;6.560;2023-05-10T02:15:53;18.50;65.30
20091;DHT22;10205;49.678;6.560;2023-05-10T02:18:24;18.50;65.40
20091;DHT22;10205;49.678;6.560;2023-05-10T02:20:54;18.40;65.40
20091;DHT22;10205;49.678;6.560;2023-05-10T02:23:23;18.40;65.40
20091;DHT22;10205;49.678;6.560;2023-05-10T02:25:52;18.40;66.30
20091;DHT22;10205;49.678;6.560;2023-05-10T02:28:23;18.40;65.60
20091;DHT22;10205;49.678;6.560;2023-05-10T02:30:52;18.30;65.50
20091;DHT22;10205;49.678;6.560;2023-05-10T02:33:21;18.30;65.70
20091;DHT22;10205;49.678;6.560;2023-05-10T02:35:50;18.30;65.70
20091;DHT22;10205;49.678;6.560;2023-05-10T02:38:19;18.30;65.80
20091;DHT22;10205;49.678;6.560;2023-05-10T02:40:48;18.30;65.90
20091;DHT22;10205;49.678;6.560;2023-05-10T02:43:17;18.30;65.90
20091;DHT22;10205;49.678;6.560;2023-05-10T02:45:47;18.30;65.90
20091;DHT22;10205;49.678;6.560;2023-05-10T02:48:15;18.20;65.90
20091;DHT22;10205;49.678;6.560;2023-05-10T02:50:44;18.20;66.00
20091;DHT22;10205;49.678;6.560;2023-05-10T02:53:21;18.20;66.00
20091;DHT22;10205;49.678;6.560;2023-05-10T02:55:52;18.20;66.10
20091;DHT22;10205;49.678;6.560;2023-05-10T02:58:23;18.20;66.10
20091;DHT22;10205;49.678;6.560;2023-05-10T03:00:50;18.20;66.10
20091;DHT22;10205;49.678;6.560;2023-05-10T03:03:18;18.20;66.10
20091;DHT22;10205;49.678;6.560;2023-05-10T03:05:46;18.10;66.10
20091;DHT22;10205;49.678;6.560;2023-05-10T03:08:13;18.10;66.10
20091;DHT22;10205;49.678;6.560;2023-05-10T03:10:58;18.10;66.20
20091;DHT22;10205;49.678;6.560;2023-05-10T03:13:46;18.10;66.50
20091;DHT22;10205;49.678;6.560;2023-05-10T03:16:23;18.10;66.70
20091;DHT22;10205;49.678;6.560;2023-05-10T03:18:59;18.10;66.50
20091;DHT22;10205;49.678;6.560;2023-05-10T03:21:30;18.10;66.40
20091;DHT22;10205;49.678;6.560;2023-05-10T03:24:01;18.10;66.40
20091;DHT22;10205;49.678;6.560;2023-05-10T03:26:34;18.10;66.60
20091;DHT22;10205;49.678;6.560;2023-05-10T03:29:04;18.00;66.50
20091;DHT22;10205;49.678;6.560;2023-05-10T03:31:33;18.00;66.60
20091;DHT22;10205;49.678;6.560;2023-05-10T03:34:00;18.00;66.50
20091;DHT22;10205;49.678;6.560;2023-05-10T03:36:27;18.00;66.60
20091;DHT22;10205;49.678;6.560;2023-05-10T03:38:55;18.00;66.70
20091;DHT22;10205;49.678;6.560;2023-05-10T03:41:22;18.00;66.80
20091;DHT22;10205;49.678;6.560;2023-05-10T03:43:50;17.90;66.80
20091;DHT22;10205;49.678;6.560;2023-05-10T03:46:17;17.90;67.00
20091;DHT22;10205;49.678;6.560;2023-05-10T03:48:44;17.90;66.90
20091;DHT22;10205;49.678;6.560;2023-05-10T03:51:11;17.90;66.90
20091;DHT22;10205;49.678;6.560;2023-05-10T03:53:38;17.90;67.00
20091;DHT22;10205;49.678;6.560;2023-05-10T03:56:05;17.90;67.10
20091;DHT22;10205;49.678;6.560;2023-05-10T03:58:32;17.90;67.10
20091;DHT22;10205;49.678;6.560;2023-05-10T04:01:01;17.90;67.10
20091;DHT22;10205;49.678;6.560;2023-05-10T04:03:28;17.80;67.00
20091;DHT22;10205;49.678;6.560;2023-05-10T04:05:59;17.80;67.10
20091;DHT22;10205;49.678;6.560;2023-05-10T04:08:27;17.90;67.30
20091;DHT22;10205;49.678;6.560;2023-05-10T04:10:54;17.80;67.00
20091;DHT22;10205;49.678;6.560;2023-05-10T04:13:21;17.90;67.20
20091;DHT22;10205;49.678;6.560;2023-05-10T04:15:48;17.80;67.10
20091;DHT22;10205;49.678;6.560;2023-05-10T04:18:16;17.80;67.10
20091;DHT22;10205;49.678;6.560;2023-05-10T04:20:43;17.80;67.30
20091;DHT22;10205;49.678;6.560;2023-05-10T04:23:10;17.80;67.30
20091;DHT22;10205;49.678;6.560;2023-05-10T04:25:37;17.80;67.10
20091;DHT22;10205;49.678;6.560;2023-05-10T04:28:04;17.80;67.30
20091;DHT22;10205;49.678;6.560;2023-05-10T04:30:31;17.80;67.20
20091;DHT22;10205;49.678;6.560;2023-05-10T04:32:58;17.80;67.30
20091;DHT22;10205;49.678;6.560;2023-05-10T04:35:27;17.80;67.40
20091;DHT22;10205;49.678;6.560;2023-05-10T04:37:54;17.80;67.50
20091;DHT22;10205;49.678;6.560;2023-05-10T04:40:21;17.70;67.50
20091;DHT22;10205;49.678;6.560;2023-05-10T04:42:49;17.70;67.50
20091;DHT22;10205;49.678;6.560;2023-05-10T04:45:16;17.70;67.50
20091;DHT22;10205;49.678;6.560;2023-05-10T04:47:43;17.70;67.60
20091;DHT22;10205;49.678;6.560;2023-05-10T04:50:10;17.70;67.70
20091;DHT22;10205;49.678;6.560;2023-05-10T04:52:38;17.70;67.60
20091;DHT22;10205;49.678;6.560;2023-05-10T04:55:06;17.70;67.60
20091;DHT22;10205;49.678;6.560;2023-05-10T04:57:35;17.70;67.60
20091;DHT22;10205;49.678;6.560;2023-05-10T05:00:02;17.70;67.60
20091;DHT22;10205;49.678;6.560;2023-05-10T05:02:29;17.70;67.60
20091;DHT22;10205;49.678;6.560;2023-05-10T05:04:56;17.70;67.60
20091;DHT22;10205;49.678;6.560;2023-05-10T05:07:24;17.70;67.60
20091;DHT22;10205;49.678;6.560;2023-05-10T05:09:52;17.70;67.60
20091;DHT22;10205;49.678;6.560;2023-05-10T05:12:19;17.60;67.70
20091;DHT22;10205;49.678;6.560;2023-05-10T05:14:46;17.70;67.80
20091;DHT22;10205;49.678;6.560;2023-05-10T05:17:13;17.60;67.60
20091;DHT22;10205;49.678;6.560;2023-05-10T05:19:40;17.60;67.60
20091;DHT22;10205;49.678;6.560;2023-05-10T05:22:07;17.60;67.70
20091;DHT22;10205;49.678;6.560;2023-05-10T05:24:37;17.60;67.80
20091;DHT22;10205;49.678;6.560;2023-05-10T05:27:06;17.60;67.90
20091;DHT22;10205;49.678;6.560;2023-05-10T05:29:33;17.60;67.90
20091;DHT22;10205;49.678;6.560;2023-05-10T05:32:00;17.60;67.80
20091;DHT22;10205;49.678;6.560;2023-05-10T05:34:27;17.60;67.90
20091;DHT22;10205;49.678;6.560;2023-05-10T05:36:54;17.60;67.80
20091;DHT22;10205;49.678;6.560;2023-05-10T05:39:21;17.60;67.80
20091;DHT22;10205;49.678;6.560;2023-05-10T05:41:48;17.60;67.90
20091;DHT22;10205;49.678;6.560;2023-05-10T05:44:16;17.60;67.80
20091;DHT22;10205;49.678;6.560;2023-05-10T05:46:43;17.60;67.90
20091;DHT22;10205;49.678;6.560;2023-05-10T05:49:10;17.60;68.00
20091;DHT22;10205;49.678;6.560;2023-05-10T05:51:37;17.60;68.00
20091;DHT22;10205;49.678;6.560;2023-05-10T05:54:04;17.60;67.90
20091;DHT22;10205;49.678;6.560;2023-05-10T05:56:31;17.60;67.80
20091;DHT22;10205;49.678;6.560;2023-05-10T05:58:58;17.60;67.90
20091;DHT22;10205;49.678;6.560;2023-05-10T06:01:27;17.60;67.80
20091;DHT22;10205;49.678;6.560;2023-05-10T06:03:54;17.60;67.90
20091;DHT22;10205;49.678;6.560;2023-05-10T06:06:21;17.60;67.80
20091;DHT22;10205;49.678;6.560;2023-05-10T06:08:48;17.60;67.90
20091;DHT22;10205;49.678;6.560;2023-05-10T06:11:18;17.60;67.90
20091;DHT22;10205;49.678;6.560;2023-05-10T06:13:45;17.60;67.80
20091;DHT22;10205;49.678;6.560;2023-05-10T06:16:13;17.60;67.80
20091;DHT22;10205;49.678;6.560;2023-05-10T06:18:41;17.70;67.90
20091;DHT22;10205;49.678;6.560;2023-05-10T06:21:08;17.70;67.90
20091;DHT22;10205;49.678;6.560;2023-05-10T06:23:35;17.70;67.80
20091;DHT22;10205;49.678;6.560;2023-05-10T06:26:02;17.70;67.50
20091;DHT22;10205;49.678;6.560;2023-05-10T06:28:32;17.70;67.40
20091;DHT22;10205;49.678;6.560;2023-05-10T06:30:59;17.70;67.50
20091;DHT22;10205;49.678;6.560;2023-05-10T06:33:26;17.70;67.30
20091;DHT22;10205;49.678;6.560;2023-05-10T06:35:55;17.60;67.30
20091;DHT22;10205;49.678;6.560;2023-05-10T06:38:23;17.60;67.50
20091;DHT22;10205;49.678;6.560;2023-05-10T06:40:50;17.60;67.50
20091;DHT22;10205;49.678;6.560;2023-05-10T06:43:17;17.60;67.10
20091;DHT22;10205;49.678;6.560;2023-05-10T06:45:44;17.70;67.10
20091;DHT22;10205;49.678;6.560;2023-05-10T06:48:11;17.70;66.90
20091;DHT22;10205;49.678;6.560;2023-05-10T06:50:38;17.70;67.00
20091;DHT22;10205;49.678;6.560;2023-05-10T06:53:07;17.70;67.10
20091;DHT22;10205;49.678;6.560;2023-05-10T06:55:34;17.60;67.90
20091;DHT22;10205;49.678;6.560;2023-05-10T06:58:01;17.60;66.80
20091;DHT22;10205;49.678;6.560;2023-05-10T07:00:28;17.60;67.10
20091;DHT22;10205;49.678;6.560;2023-05-10T07:02:55;17.70;67.30
20091;DHT22;10205;49.678;6.560;2023-05-10T07:05:23;17.70;67.30
20091;DHT22;10205;49.678;6.560;2023-05-10T07:07:50;17.70;67.00
20091;DHT22;10205;49.678;6.560;2023-05-10T07:10:18;17.70;67.00
20091;DHT22;10205;49.678;6.560;2023-05-10T07:12:45;17.70;67.10
20091;DHT22;10205;49.678;6.560;2023-05-10T07:15:12;17.70;67.10
20091;DHT22;10205;49.678;6.560;2023-05-10T07:17:39;17.70;66.80
20091;DHT22;10205;49.678;6.560;2023-05-10T07:20:08;17.70;66.70
20091;DHT22;10205;49.678;6.560;2023-05-10T07:22:35;17.70;66.70
20091;DHT22;10205;49.678;6.560;2023-05-10T07:25:02;17.70;66.90
20091;DHT22;10205;49.678;6.560;2023-05-10T07:27:31;17.70;67.10
20091;DHT22;10205;49.678;6.560;2023-05-10T07:29:58;17.70;67.10
20091;DHT22;10205;49.678;6.560;2023-05-10T07:32:26;17.80;67.30
20091;DHT22;10205;49.678;6.560;2023-05-10T07:34:53;17.80;67.30
20091;DHT22;10205;49.678;6.560;2023-05-10T07:37:20;17.80;67.30
20091;DHT22;10205;49.678;6.560;2023-05-10T07:39:47;17.80;67.30
20091;DHT22;10205;49.678;6.560;2023-05-10T07:42:16;17.80;67.00
20091;DHT22;10205;49.678;6.560;2023-05-10T07:44:44;17.80;67.10
20091;DHT22;10205;49.678;6.560;2023-05-10T07:47:12;17.90;67.00
20091;DHT22;10205;49.678;6.560;2023-05-10T07:49:39;17.90;67.10
20091;DHT22;10205;49.678;6.560;2023-05-10T07:52:06;17.90;66.90
20091;DHT22;10205;49.678;6.560;2023-05-10T07:54:33;17.90;67.80
20091;DHT22;10205;49.678;6.560;2023-05-10T07:57:00;17.90;66.90
20091;DHT22;10205;49.678;6.560;2023-05-10T07:59:27;17.90;67.00
20091;DHT22;10205;49.678;6.560;2023-05-10T08:01:56;17.90;67.10
20091;DHT22;10205;49.678;6.560;2023-05-10T08:04:23;18.00;67.20
20091;DHT22;10205;49.678;6.560;2023-05-10T08:06:50;18.00;67.20
20091;DHT22;10205;49.678;6.560;2023-05-10T08:09:17;18.00;67.10
20091;DHT22;10205;49.678;6.560;2023-05-10T08:11:49;18.00;66.90
20091;DHT22;10205;49.678;6.560;2023-05-10T08:14:16;18.00;67.10
20091;DHT22;10205;49.678;6.560;2023-05-10T08:16:43;18.10;68.00
20091;DHT22;10205;49.678;6.560;2023-05-10T08:19:12;18.10;67.10
20091;DHT22;10205;49.678;6.560;2023-05-10T08:21:44;18.10;66.70
20091;DHT22;10205;49.678;6.560;2023-05-10T08:24:12;18.10;66.90
20091;DHT22;10205;49.678;6.560;2023-05-10T08:26:39;18.10;66.90
20091;DHT22;10205;49.678;6.560;2023-05-10T08:29:06;18.20;66.80
20091;DHT22;10205;49.678;6.560;2023-05-10T08:31:34;18.20;66.50
20091;DHT22;10205;49.678;6.560;2023-05-10T08:34:01;18.20;66.40
20091;DHT22;10205;49.678;6.560;2023-05-10T08:36:29;18.20;66.40
20091;DHT22;10205;49.678;6.560;2023-05-10T08:38:58;18.20;66.40
20091;DHT22;10205;49.678;6.560;2023-05-10T08:41:25;18.20;66.30
20091;DHT22;10205;49.678;6.560;2023-05-10T08:43:53;18.20;66.10
20091;DHT22;10205;49.678;6.560;2023-05-10T08:46:21;18.20;66.00
20091;DHT22;10205;49.678;6.560;2023-05-10T08:48:50;18.20;66.10
20091;DHT22;10205;49.678;6.560;2023-05-10T08:51:19;18.20;65.90
20091;DHT22;10205;49.678;6.560;2023-05-10T08:53:50;18.20;65.80
20091;DHT22;10205;49.678;6.560;2023-05-10T08:56:18;18.20;66.00
20091;DHT22;10205;49.678;6.560;2023-05-10T08:58:46;18.20;65.90
20091;DHT22;10205;49.678;6.560;2023-05-10T09:01:15;18.20;66.00
20091;DHT22;10205;49.678;6.560;2023-05-10T09:03:46;18.10;66.00
20091;DHT22;10205;49.678;6.560;2023-05-10T09:06:13;18.10;66.30
20091;DHT22;10205;49.678;6.560;2023-05-10T09:08:41;18.20;66.50
20091;DHT22;10205;49.678;6.560;2023-05-10T09:11:12;18.10;66.40
20091;DHT22;10205;49.678;6.560;2023-05-10T09:13:39;18.20;66.50
20091;DHT22;10205;49.678;6.560;2023-05-10T09:16:07;18.20;66.70
20091;DHT22;10205;49.678;6.560;2023-05-10T09:18:34;18.20;66.60
20091;DHT22;10205;49.678;6.560;2023-05-10T09:21:02;18.20;66.50
20091;DHT22;10205;49.678;6.560;2023-05-10T09:23:29;18.20;66.50
20091;DHT22;10205;49.678;6.560;2023-05-10T09:26:04;18.20;66.50
20091;DHT22;10205;49.678;6.560;2023-05-10T09:28:33;18.20;66.50
20091;DHT22;10205;49.678;6.560;2023-05-10T09:31:01;18.20;66.50
20091;DHT22;10205;49.678;6.560;2023-05-10T09:33:27;18.30;66.60
20091;DHT22;10205;49.678;6.560;2023-05-10T09:35:55;18.30;66.50
20091;DHT22;10205;49.678;6.560;2023-05-10T09:38:45;18.30;66.50
20091;DHT22;10205;49.678;6.560;2023-05-10T09:41:17;18.40;66.20
20091;DHT22;10205;49.678;6.560;2023-05-10T09:43:47;18.40;65.80
20091;DHT22;10205;49.678;6.560;2023-05-10T09:46:14;18.40;65.80
20091;DHT22;10205;49.678;6.560;2023-05-10T09:48:43;18.40;65.80
20091;DHT22;10205;49.678;6.560;2023-05-10T09:51:19;18.40;65.50
20091;DHT22;10205;49.678;6.560;2023-05-10T09:53:47;18.40;65.50
20091;DHT22;10205;49.678;6.560;2023-05-10T09:56:32;18.50;65.60
20091;DHT22;10205;49.678;6.560;2023-05-10T09:59:05;18.50;65.40
20091;DHT22;10205;49.678;6.560;2023-05-10T10:01:33;18.50;65.20
20091;DHT22;10205;49.678;6.560;2023-05-10T10:04:03;18.50;65.30
20091;DHT22;10205;49.678;6.560;2023-05-10T10:06:35;18.60;65.30
20091;DHT22;10205;49.678;6.560;2023-05-10T10:09:04;18.60;64.90
20091;DHT22;10205;49.678;6.560;2023-05-10T10:11:32;18.60;65.00
20091;DHT22;10205;49.678;6.560;2023-05-10T10:14:00;18.60;65.00
20091;DHT22;10205;49.678;6.560;2023-05-10T10:16:30;18.70;65.00
20091;DHT22;10205;49.678;6.560;2023-05-10T10:18:58;18.70;64.90
20091;DHT22;10205;49.678;6.560;2023-05-10T10:21:25;18.70;64.90
20091;DHT22;10205;49.678;6.560;2023-05-10T10:23:53;18.70;65.00
20091;DHT22;10205;49.678;6.560;2023-05-10T10:26:21;18.80;64.60
20091;DHT22;10205;49.678;6.560;2023-05-10T10:28:56;18.80;64.30
20091;DHT22;10205;49.678;6.560;2023-05-10T10:31:40;18.80;63.90
20091;DHT22;10205;49.678;6.560;2023-05-10T10:34:25;18.80;63.30
20091;DHT22;10205;49.678;6.560;2023-05-10T10:36:54;18.90;63.20
20091;DHT22;10205;49.678;6.560;2023-05-10T10:39:23;18.90;63.20
20091;DHT22;10205;49.678;6.560;2023-05-10T10:41:52;18.90;63.00
20091;DHT22;10205;49.678;6.560;2023-05-10T10:44:38;18.90;62.70
20091;DHT22;10205;49.678;6.560;2023-05-10T10:47:21;19.00;62.20
20091;DHT22;10205;49.678;6.560;2023-05-10T10:50:03;19.00;61.70
20091;DHT22;10205;49.678;6.560;2023-05-10T10:52:32;19.00;62.00
20091;DHT22;10205;49.678;6.560;2023-05-10T10:55:02;19.00;62.30
20091;DHT22;10205;49.678;6.560;2023-05-10T10:57:42;19.00;61.70
20091;DHT22;10205;49.678;6.560;2023-05-10T11:00:27;19.10;61.80
20091;DHT22;10205;49.678;6.560;2023-05-10T11:02:58;19.10;61.10
20091;DHT22;10205;49.678;6.560;2023-05-10T11:05:38;19.10;61.00
20091;DHT22;10205;49.678;6.560;2023-05-10T11:08:17;19.20;60.40
20091;DHT22;10205;49.678;6.560;2023-05-10T11:11:06;19.20;61.40
20091;DHT22;10205;49.678;6.560;2023-05-10T11:13:37;19.20;60.40
20091;DHT22;10205;49.678;6.560;2023-05-10T11:16:14;19.20;60.90
20091;DHT22;10205;49.678;6.560;2023-05-10T11:18:54;19.30;60.50
20091;DHT22;10205;49.678;6.560;2023-05-10T11:21:25;19.30;60.40
20091;DHT22;10205;49.678;6.560;2023-05-10T11:23:56;19.30;60.50
20091;DHT22;10205;49.678;6.560;2023-05-10T11:26:25;19.40;60.10
20091;DHT22;10205;49.678;6.560;2023-05-10T11:28:57;19.40;60.20
20091;DHT22;10205;49.678;6.560;2023-05-10T11:31:26;19.40;60.50
20091;DHT22;10205;49.678;6.560;2023-05-10T11:33:56;19.40;60.50
20091;DHT22;10205;49.678;6.560;2023-05-10T11:36:27;19.50;60.50
20091;DHT22;10205;49.678;6.560;2023-05-10T11:38:56;19.50;60.60
20091;DHT22;10205;49.678;6.560;2023-05-10T11:41:24;19.50;60.70
20091;DHT22;10205;49.678;6.560;2023-05-10T11:43:52;19.60;60.70
20091;DHT22;10205;49.678;6.560;2023-05-10T11:46:22;19.60;60.70
20091;DHT22;10205;49.678;6.560;2023-05-10T11:48:52;19.60;60.40
20091;DHT22;10205;49.678;6.560;2023-05-10T11:51:23;19.60;60.70
20091;DHT22;10205;49.678;6.560;2023-05-10T11:53:53;19.70;61.00
20091;DHT22;10205;49.678;6.560;2023-05-10T11:56:21;19.70;60.80
20091;DHT22;10205;49.678;6.560;2023-05-10T11:58:53;19.70;60.80
20091;DHT22;10205;49.678;6.560;2023-05-10T12:01:21;19.80;60.30
20091;DHT22;10205;49.678;6.560;2023-05-10T12:03:49;19.90;61.00
20091;DHT22;10205;49.678;6.560;2023-05-10T12:06:19;19.90;60.20
20091;DHT22;10205;49.678;6.560;2023-05-10T12:08:48;20.00;59.90
20091;DHT22;10205;49.678;6.560;2023-05-10T12:11:17;20.00;59.90
20091;DHT22;10205;49.678;6.560;2023-05-10T12:13:46;20.10;59.80
20091;DHT22;10205;49.678;6.560;2023-05-10T12:16:15;20.10;59.80
20091;DHT22;10205;49.678;6.560;2023-05-10T12:18:43;20.20;59.40
20091;DHT22;10205;49.678;6.560;2023-05-10T12:21:11;20.20;59.20
20091;DHT22;10205;49.678;6.560;2023-05-10T12:23:40;20.30;59.00
20091;DHT22;10205;49.678;6.560;2023-05-10T12:26:09;20.30;59.20
20091;DHT22;10205;49.678;6.560;2023-05-10T12:28:37;20.40;59.20
20091;DHT22;10205;49.678;6.560;2023-05-10T12:31:05;20.40;58.70
20091;DHT22;10205;49.678;6.560;2023-05-10T12:33:36;20.50;58.50
20091;DHT22;10205;49.678;6.560;2023-05-10T12:36:07;20.50;58.50
20091;DHT22;10205;49.678;6.560;2023-05-10T12:38:36;20.60;58.60
20091;DHT22;10205;49.678;6.560;2023-05-10T12:41:06;20.60;58.40
20091;DHT22;10205;49.678;6.560;2023-05-10T12:43:35;20.70;58.30
20091;DHT22;10205;49.678;6.560;2023-05-10T12:46:07;20.70;58.40
20091;DHT22;10205;49.678;6.560;2023-05-10T12:48:35;20.80;58.10
20091;DHT22;10205;49.678;6.560;2023-05-10T12:51:04;20.80;58.40
20091;DHT22;10205;49.678;6.560;2023-05-10T12:53:35;20.90;58.20
20091;DHT22;10205;49.678;6.560;2023-05-10T12:56:02;20.90;58.00
20091;DHT22;10205;49.678;6.560;2023-05-10T12:58:31;21.00;57.70
20091;DHT22;10205;49.678;6.560;2023-05-10T13:00:58;21.00;57.00
20091;DHT22;10205;49.678;6.560;2023-05-10T13:03:25;21.10;57.20
20091;DHT22;10205;49.678;6.560;2023-05-10T13:05:52;21.10;56.10
20091;DHT22;10205;49.678;6.560;2023-05-10T13:08:19;21.20;56.50
20091;DHT22;10205;49.678;6.560;2023-05-10T13:10:46;21.20;56.40
20091;DHT22;10205;49.678;6.560;2023-05-10T13:13:15;21.20;56.40
20091;DHT22;10205;49.678;6.560;2023-05-10T13:15:44;21.30;56.20
20091;DHT22;10205;49.678;6.560;2023-05-10T13:18:11;21.30;55.60
20091;DHT22;10205;49.678;6.560;2023-05-10T13:20:38;21.40;55.40
20091;DHT22;10205;49.678;6.560;2023-05-10T13:23:06;21.40;55.60
20091;DHT22;10205;49.678;6.560;2023-05-10T13:25:33;21.50;55.10
20091;DHT22;10205;49.678;6.560;2023-05-10T13:28:00;21.60;55.50
20091;DHT22;10205;49.678;6.560;2023-05-10T13:30:27;21.60;54.80
20091;DHT22;10205;49.678;6.560;2023-05-10T13:32:55;21.60;54.70
20091;DHT22;10205;49.678;6.560;2023-05-10T13:35:22;21.70;54.30
20091;DHT22;10205;49.678;6.560;2023-05-10T13:37:49;21.80;54.00
20091;DHT22;10205;49.678;6.560;2023-05-10T13:40:17;21.80;53.80
20091;DHT22;10205;49.678;6.560;2023-05-10T13:42:44;21.80;54.00
20091;DHT22;10205;49.678;6.560;2023-05-10T13:45:11;21.90;54.50
20091;DHT22;10205;49.678;6.560;2023-05-10T13:47:39;22.00;53.90
20091;DHT22;10205;49.678;6.560;2023-05-10T13:50:08;22.00;54.00
20091;DHT22;10205;49.678;6.560;2023-05-10T13:52:35;22.00;53.50
20091;DHT22;10205;49.678;6.560;2023-05-10T13:55:03;22.10;54.60
20091;DHT22;10205;49.678;6.560;2023-05-10T13:57:30;22.10;53.40
20091;DHT22;10205;49.678;6.560;2023-05-10T13:59:59;22.20;53.00
20091;DHT22;10205;49.678;6.560;2023-05-10T14:02:27;22.30;52.40
20091;DHT22;10205;49.678;6.560;2023-05-10T14:04:54;22.30;52.60
20091;DHT22;10205;49.678;6.560;2023-05-10T14:07:22;22.30;52.40
20091;DHT22;10205;49.678;6.560;2023-05-10T14:09:49;22.40;51.90
20091;DHT22;10205;49.678;6.560;2023-05-10T14:12:16;22.40;51.80
20091;DHT22;10205;49.678;6.560;2023-05-10T14:14:43;22.40;51.90
20091;DHT22;10205;49.678;6.560;2023-05-10T14:17:10;22.50;50.90
20091;DHT22;10205;49.678;6.560;2023-05-10T14:19:37;22.50;51.50
20091;DHT22;10205;49.678;6.560;2023-05-10T14:22:04;22.50;51.40
20091;DHT22;10205;49.678;6.560;2023-05-10T14:24:33;22.50;50.50
20091;DHT22;10205;49.678;6.560;2023-05-10T14:27:00;22.60;50.60
20091;DHT22;10205;49.678;6.560;2023-05-10T14:29:27;22.60;50.80
20091;DHT22;10205;49.678;6.560;2023-05-10T14:31:54;22.60;51.20
20091;DHT22;10205;49.678;6.560;2023-05-10T14:34:21;22.60;51.20
20091;DHT22;10205;49.678;6.560;2023-05-10T14:36:48;22.60;51.20
20091;DHT22;10205;49.678;6.560;2023-05-10T14:39:16;22.70;51.10
20091;DHT22;10205;49.678;6.560;2023-05-10T14:41:45;22.70;51.20
20091;DHT22;10205;49.678;6.560;2023-05-10T14:44:12;22.70;50.90
20091;DHT22;10205;49.678;6.560;2023-05-10T14:46:40;22.80;51.10
20091;DHT22;10205;49.678;6.560;2023-05-10T14:49:08;22.80;51.30
20091;DHT22;10205;49.678;6.560;2023-05-10T14:51:35;22.80;51.30
20091;DHT22;10205;49.678;6.560;2023-05-10T14:54:02;22.80;51.00
20091;DHT22;10205;49.678;6.560;2023-05-10T14:56:29;22.80;51.00
20091;DHT22;10205;49.678;6.560;2023-05-10T14:58:58;22.80;51.10
20091;DHT22;10205;49.678;6.560;2023-05-10T15:01:25;22.80;50.70
20091;DHT22;10205;49.678;6.560;2023-05-10T15:03:52;22.80;51.30
20091;DHT22;10205;49.678;6.560;2023-05-10T15:06:23;22.90;51.20
20091;DHT22;10205;49.678;6.560;2023-05-10T15:08:56;22.80;50.60
20091;DHT22;10205;49.678;6.560;2023-05-10T15:11:23;22.80;50.70
20091;DHT22;10205;49.678;6.560;2023-05-10T15:13:50;22.80;51.20
20091;DHT22;10205;49.678;6.560;2023-05-10T15:16:19;22.90;51.60
20091;DHT22;10205;49.678;6.560;2023-05-10T15:18:46;22.90;52.00
20091;DHT22;10205;49.678;6.560;2023-05-10T15:21:14;22.90;51.80
20091;DHT22;10205;49.678;6.560;2023-05-10T15:23:41;22.90;51.70
20091;DHT22;10205;49.678;6.560;2023-05-10T15:26:09;22.90;51.40
20091;DHT22;10205;49.678;6.560;2023-05-10T15:28:36;23.00;51.30
20091;DHT22;10205;49.678;6.560;2023-05-10T15:31:03;23.00;51.00
20091;DHT22;10205;49.678;6.560;2023-05-10T15:33:32;23.00;50.70
20091;DHT22;10205;49.678;6.560;2023-05-10T15:35:59;23.00;50.90
20091;DHT22;10205;49.678;6.560;2023-05-10T15:38:26;23.00;50.60
20091;DHT22;10205;49.678;6.560;2023-05-10T15:40:55;23.10;50.80
20091;DHT22;10205;49.678;6.560;2023-05-10T15:43:23;23.10;51.00
20091;DHT22;10205;49.678;6.560;2023-05-10T15:45:50;23.10;51.00